Flight Track Log - Related Links

Times and Time Zones

All times are in EDT time to prevent confusion due to time zone crossing. See the SKW5516 flight status page for this flight to view local times or setup timezone preferences in your user account.


Time Position Orientation Groundspeed Altitude Reporting Facility
EDT Latitude Longitude Course Direction KTS MPH feet Rate Location/Type
Mon 09:12:13 AM 30.1408 -97.7483 291° West 238 274 4,600  Level Houston Center
Mon 09:13:00 AM 30.4514 -97.7662 293° West  Level FlightAware Approximate
Mon 09:13:14 AM 30.1869 -97.8164 308° West 227 261 7,200  Level Houston Center
Mon 09:14:00 AM 30.4965 -97.8903 293° West  Level FlightAware Approximate
Mon 09:14:16 AM 30.2256 -97.8814 305° West 238 274 9,800  Level Houston Center
Mon 09:15:00 AM 30.5387 -98.0157 291° West  Level FlightAware Approximate
Mon 09:15:18 AM 30.2689 -97.9481 307° West 242 278 11,400  Level Houston Center
Mon 09:16:00 AM 30.5806 -98.1414 291° West  Level FlightAware Approximate
Mon 09:16:20 AM 30.3197 -98.0144 312° West 277 319 13,200  Level Houston Center
Mon 09:17:00 AM 30.6224 -98.2671 291° West  Level FlightAware Approximate
Mon 09:17:22 AM 30.3833 -98.0669 325° Northwest 285 328 15,000  Level Houston Center
Mon 09:18:24 AM 30.4511 -98.1231 324° Northwest 295 339 16,700 1,694 Climbing Houston Center
Mon 09:19:26 AM 30.5214 -98.1808 325° Northwest 304 350 18,500 1,500 Climbing Houston Center
Mon 09:20:28 AM 30.5922 -98.2403 324° Northwest 309 356 19,800 1,355 Climbing Houston Center
Mon 09:21:30 AM 30.6656 -98.3028 324° Northwest 319 367 21,300 1,645 Climbing Houston Center
Mon 09:22:32 AM 30.7533 -98.3758 324° Northwest 326 375 23,200 1,548 Climbing Houston Center
Mon 09:23:34 AM 30.8283 -98.4386 324° Northwest 327 376 24,500 1,306 Climbing Houston Center
Mon 09:24:36 AM 30.9056 -98.5044 324° Northwest 337 388 25,900 1,210 Climbing Houston Center
Mon 09:25:38 AM 30.9844 -98.5692 325° Northwest 342 394 27,000 968 Climbing Houston Center
Mon 09:26:40 AM 31.0650 -98.6392 323° Northwest 354 407 27,900 1,152 Climbing Houston Center
Mon 09:27:43 AM 31.1500 -98.7114 324° Northwest 368 423 29,400 1,056 Climbing Houston Center
Mon 09:28:45 AM 31.2328 -98.7811 324° Northwest 364 419 30,100 581 Climbing Houston Center
Mon 09:29:47 AM 31.3186 -98.8561 323° Northwest 376 433 30,600 726 Climbing Houston Center
Mon 09:30:49 AM 31.4239 -98.9444 324° Northwest 391 450 31,600 919 Climbing Houston Center
Mon 09:31:51 AM 31.5144 -99.0214 324° Northwest 395 455 32,500 871 Climbing Houston Center
Mon 09:32:53 AM 31.6039 -99.0981 324° Northwest 394 453 33,400 804 Climbing Houston Center
Mon 09:33:28 AM 31.6481 -99.1386 322° Northwest 387 445 33,800 758 Climbing Fort Worth Center
Mon 09:34:28 AM 31.7389 -99.2161 324° Northwest 387 445 34,600 800 Climbing Fort Worth Center
Mon 09:35:28 AM 31.8128 -99.3056 314° West 387 445 35,400 700 Climbing Fort Worth Center
Mon 09:36:28 AM 31.8867 -99.3975 313° West 387 445 36,000 300 Climbing Fort Worth Center
Mon 09:37:28 AM 31.9622 -99.4897 314° West 382 440 36,000  Level Fort Worth Center
Mon 09:38:28 AM 32.0358 -99.5847 312° West 389 448 36,000  Level Fort Worth Center
Mon 09:39:28 AM 32.1136 -99.6797 314° West 395 455 36,000  Level Fort Worth Center
Mon 09:40:28 AM 32.1889 -99.7797 312° West 400 460 36,000  Level Fort Worth Center
Mon 09:41:28 AM 32.2642 -99.8750 313° West 400 460 36,000  Level Fort Worth Center
Mon 09:42:28 AM 32.3397 -99.9731 312° West 395 455 36,000  Level Fort Worth Center
Mon 09:43:28 AM 32.4128 -100.0686 312° West 395 455 36,000  Level Fort Worth Center
Mon 09:44:28 AM 32.4939 -100.1744 312° West 395 455 36,000  Level Fort Worth Center
Mon 09:45:28 AM 32.5669 -100.2678 313° West 395 455 36,000  Level Fort Worth Center
Mon 09:46:28 AM 32.6400 -100.3592 314° West 390 449 36,000  Level Fort Worth Center
Mon 09:47:28 AM 32.7089 -100.4478 313° West 384 442 36,000  Level Fort Worth Center
Mon 09:48:28 AM 32.7797 -100.5367 313° West 379 436 36,000  Level Fort Worth Center
Mon 09:49:28 AM 32.8506 -100.6281 313° West 379 436 36,000  Level Fort Worth Center
Mon 09:50:28 AM 32.9211 -100.7197 313° West 373 429 36,000  Level Fort Worth Center
Mon 09:51:28 AM 32.9917 -100.8139 312° West 373 429 36,000  Level Fort Worth Center
Mon 09:52:28 AM 33.0622 -100.9058 312° West 373 429 36,000  Level Fort Worth Center
Mon 09:53:28 AM 33.1186 -100.9800 312° West 373 429 36,000  Level Fort Worth Center
Mon 09:54:28 AM 33.2031 -101.0878 313° West 373 429 36,000  Level Fort Worth Center
Mon 09:55:28 AM 33.2675 -101.1722 312° West 373 429 36,000  Level Fort Worth Center
Mon 09:56:28 AM 33.3478 -101.2778 312° West 379 436 36,000  Level Fort Worth Center
Mon 09:57:28 AM 33.4119 -101.3625 312° West 374 430 36,000  Level Fort Worth Center
Mon 09:58:28 AM 33.4900 -101.4683 312° West 380 437 36,000  Level Fort Worth Center
Mon 09:59:28 AM 33.5539 -101.5533 312° West 380 437 36,000  Level Fort Worth Center
Mon 10:00:28 AM 33.6358 -101.6644 312° West 385 443 36,000  Level Fort Worth Center
Mon 10:01:28 AM 33.7056 -101.7578 312° West 390 449 36,000  Level Fort Worth Center
Mon 10:02:28 AM 33.7694 -101.8383 314° West 395 455 36,000 150 Level Fort Worth Center
Mon 10:03:28 AM 33.8508 -101.9550 310° West 394 453 36,300 400 Climbing Fort Worth Center
Mon 10:04:28 AM 33.9125 -102.0408 311° West 384 442 36,800 439 Climbing Fort Worth Center
Mon 10:06:12 AM 34.0269 -102.1964 312° West 382 440 37,500 436 Climbing Albuquerque Center
Mon 10:07:13 AM 34.1097 -102.3069 312° West 375 432 38,000 246 Climbing Albuquerque Center
Mon 10:08:14 AM 34.1789 -102.4025 311° West 375 432 38,000  Level Albuquerque Center
Mon 10:09:16 AM 34.2450 -102.4936 311° West 377 434 38,000  Level Albuquerque Center
Mon 10:10:17 AM 34.3153 -102.5900 311° West 380 437 38,000  Level Albuquerque Center
Mon 10:11:18 AM 34.3839 -102.6842 311° West 375 432 38,000  Level Albuquerque Center
Mon 10:12:20 AM 34.4522 -102.7792 311° West 374 430 38,000  Level Albuquerque Center
Mon 10:13:22 AM 34.5172 -102.8825 307° West 362 417 38,000  Level Albuquerque Center
Mon 10:14:23 AM 34.5736 -102.9883 303° West 366 421 38,000  Level Albuquerque Center
Mon 10:15:25 AM 34.6367 -103.1117 302° West 367 422 38,000  Level Albuquerque Center
Mon 10:16:26 AM 34.6925 -103.2181 303° West 368 423 38,000  Level Albuquerque Center
Mon 10:17:28 AM 34.7475 -103.3258 302° West 371 427 38,000  Level Albuquerque Center
Mon 10:18:29 AM 34.8031 -103.4319 303° West 370 426 38,000  Level Albuquerque Center
Mon 10:19:31 AM 34.8583 -103.5397 302° West 372 428 38,000  Level Albuquerque Center
Mon 10:20:32 AM 34.9133 -103.6472 302° West 371 427 38,000  Level Albuquerque Center
Mon 10:21:34 AM 34.9689 -103.7556 302° West 373 429 38,000  Level Albuquerque Center
Mon 10:22:36 AM 35.0256 -103.8656 302° West 376 433 38,000  Level Albuquerque Center
Mon 10:23:37 AM 35.0861 -103.9850 302° West 381 438 38,000  Level Albuquerque Center
Mon 10:24:39 AM 35.1436 -104.0972 302° West 387 445 38,000  Level Albuquerque Center
Mon 10:25:41 AM 35.1992 -104.2078 302° West 383 441 38,000  Level Albuquerque Center
Mon 10:26:42 AM 35.2550 -104.3197 301° West 386 444 38,000  Level Albuquerque Center
Mon 10:27:44 AM 35.3111 -104.4331 301° West 388 447 38,000  Level Albuquerque Center
Mon 10:28:46 AM 35.3689 -104.5511 301° West 387 445 38,000  Level Albuquerque Center
Mon 10:29:47 AM 35.4258 -104.6656 301° West 389 448 38,000  Level Albuquerque Center
Mon 10:30:49 AM 35.4914 -104.7983 301° West 387 445 38,000  Level Albuquerque Center
Mon 10:31:51 AM 35.5478 -104.9122 301° West 387 445 38,000  Level Albuquerque Center
Mon 10:32:53 AM 35.6036 -105.0264 301° West 386 444 38,000  Level Albuquerque Center
Mon 10:33:54 AM 35.6581 -105.1381 301° West 380 437 38,000  Level Albuquerque Center
Mon 10:34:56 AM 35.7047 -105.2547 296° West 378 435 38,000  Level Albuquerque Center
Mon 10:35:58 AM 35.7489 -105.3731 295° West 377 434 38,000  Level Albuquerque Center
Mon 10:37:00 AM 35.7933 -105.4894 295° West 374 430 38,000  Level Albuquerque Center
Mon 10:38:02 AM 35.8389 -105.6058 296° West 373 429 38,000  Level Albuquerque Center
Mon 10:39:03 AM 35.8817 -105.7206 295° West 371 427 38,000  Level Albuquerque Center
Mon 10:40:05 AM 35.9256 -105.8353 295° West 370 426 38,000  Level Albuquerque Center
Mon 10:41:07 AM 35.9767 -105.9717 295° West 367 422 38,000  Level Albuquerque Center
Mon 10:42:09 AM 36.0197 -106.0856 295° West 367 422 38,000  Level Albuquerque Center
Mon 10:43:11 AM 36.0631 -106.1994 295° West 366 421 38,000  Level Albuquerque Center
Mon 10:44:12 AM 36.1058 -106.3172 294° West 374 430 38,000  Level Albuquerque Center
Mon 10:45:14 AM 36.1494 -106.4342 295° West 375 432 38,000  Level Albuquerque Center
Mon 10:46:16 AM 36.1975 -106.5633 295° West 377 434 38,000  Level Albuquerque Center
Mon 10:47:18 AM 36.2461 -106.6975 294° West 380 437 38,000  Level Albuquerque Center
Mon 10:48:20 AM 36.2894 -106.8131 295° West 384 442 38,000  Level Albuquerque Center
Mon 10:49:21 AM 36.3325 -106.9292 295° West 386 444 38,000  Level Albuquerque Center
Mon 10:50:23 AM 36.3808 -107.0678 293° West 390 449 38,000  Level Albuquerque Center
Mon 10:50:55 AM 36.4025 -107.1253 295° West 391 450 38,000  Level Denver Center
Mon 10:51:57 AM 36.4531 -107.2633 295° West 393 452 38,000  Level Denver Center
Mon 10:52:59 AM 36.4953 -107.3808 294° West 391 450 38,000  Level Denver Center
Mon 10:54:01 AM 36.5442 -107.5192 294° West 393 452 38,000  Level Denver Center
Mon 10:55:03 AM 36.5861 -107.6358 294° West 390 449 38,000  Level Denver Center
Mon 10:56:05 AM 36.6344 -107.7731 294° West 389 448 38,000  Level Denver Center
Mon 10:57:07 AM 36.6753 -107.8900 294° West 387 445 38,000  Level Denver Center
Mon 10:58:09 AM 36.7242 -108.0269 294° West 387 445 38,000  Level Denver Center
Mon 10:59:11 AM 36.7650 -108.1425 294° West 385 443 38,000  Level Denver Center
Mon 11:00:13 AM 36.8125 -108.2769 294° West 381 438 38,000  Level Denver Center
Mon 11:01:15 AM 36.8533 -108.3933 294° West 381 438 38,000  Level Denver Center
Mon 11:02:17 AM 36.9003 -108.5264 294° West 379 436 38,000  Level Denver Center
Mon 11:03:19 AM 36.9400 -108.6403 294° West 375 432 38,000  Level Denver Center
Mon 11:04:21 AM 36.9869 -108.7733 294° West 377 434 38,000  Level Denver Center
Mon 11:05:24 AM 37.0272 -108.8892 294° West 380 437 38,000  Level Denver Center
Mon 11:06:26 AM 37.0731 -109.0233 293° West 378 435 38,000  Level Denver Center
Mon 11:07:28 AM 37.1122 -109.1375 293° West 376 433 38,000  Level Denver Center
Mon 11:08:30 AM 37.1578 -109.2708 293° West 374 430 38,000  Level Denver Center
Mon 11:09:32 AM 37.1967 -109.3833 293° West 370 426 38,000  Level Denver Center
Mon 11:10:34 AM 37.2350 -109.4967 293° West 370 426 38,000  Level Denver Center
Mon 11:11:36 AM 37.2789 -109.6264 293° West 363 418 38,000  Level Denver Center
Mon 11:12:38 AM 37.3167 -109.7375 293° West 361 415 38,000  Level Denver Center
Mon 11:13:40 AM 37.3600 -109.8647 293° West 357 411 38,000  Level Denver Center
Mon 11:14:42 AM 37.3958 -109.9733 293° West 353 406 38,000  Level Denver Center
Mon 11:15:44 AM 37.4375 -110.0975 293° West 347 399 38,000  Level Denver Center
Mon 11:16:46 AM 37.4744 -110.2086 293° West 344 396 38,000  Level Denver Center
Mon 11:17:48 AM 37.5144 -110.3294 293° West 347 399 38,000  Level Denver Center
Mon 11:18:50 AM 37.5494 -110.4386 292° West 352 405 38,000  Level Denver Center
Mon 11:19:52 AM 37.5872 -110.5522 293° West 363 418 38,000  Level Denver Center
Mon 11:20:54 AM 37.6364 -110.7008 293° West 382 440 38,000  Level Denver Center
Mon 11:21:56 AM 37.6775 -110.8283 292° West 392 451 38,000  Level Denver Center
Mon 11:22:58 AM 37.7197 -110.9569 293° West 396 456 38,000  Level Denver Center
Mon 11:24:00 AM 37.7525 -111.0597 292° West 396 456 38,000  Level Denver Center
Mon 11:24:18 AM 37.7764 -111.1364 292° West 396 456 38,000  Level Salt Lake Center
Mon 11:25:20 AM 37.8186 -111.2661 292° West 399 459 38,000  Level Salt Lake Center
Mon 11:26:22 AM 37.8592 -111.3939 292° West 395 455 38,000  Level Salt Lake Center
Mon 11:27:24 AM 37.9014 -111.5236 292° West 397 457 38,000  Level Salt Lake Center
Mon 11:28:26 AM 37.9403 -111.6508 291° West 391 450 38,000  Level Salt Lake Center
Mon 11:29:28 AM 37.9800 -111.7786 292° West 390 449 38,000  Level Salt Lake Center
Mon 11:30:30 AM 38.0286 -111.9342 292° West 395 455 38,000  Level Salt Lake Center
Mon 11:31:32 AM 38.0703 -112.0619 293° West 393 452 38,000  Level Salt Lake Center
Mon 11:32:34 AM 38.1103 -112.1903 292° West 394 453 38,000  Level Salt Lake Center
Mon 11:33:36 AM 38.1314 -112.3236 281° West 392 451 38,000  Level Salt Lake Center
Mon 11:34:38 AM 38.1303 -112.4633 269° West 397 457 38,000  Level Salt Lake Center
Mon 11:35:40 AM 38.1303 -112.6303 270° West 396 456 38,000  Level Salt Lake Center
Mon 11:36:42 AM 38.1289 -112.7686 269° West 395 455 38,000  Level Salt Lake Center
Mon 11:37:44 AM 38.1289 -112.9083 270° West 399 459 38,000  Level Salt Lake Center
Mon 11:38:46 AM 38.1269 -113.0478 269° West 400 460 38,000  Level Salt Lake Center
Mon 11:39:48 AM 38.1269 -113.1864 270° West 398 458 38,000  Level Salt Lake Center
Mon 11:40:50 AM 38.1253 -113.3522 269° West 395 455 38,000  Level Salt Lake Center
Mon 11:41:52 AM 38.1242 -113.4897 269° West 393 452 38,000  Level Salt Lake Center
Mon 11:42:54 AM 38.1225 -113.6281 269° West 393 452 38,000  Level Salt Lake Center
Mon 11:43:56 AM 38.1208 -113.7661 269° West 393 452 38,000  Level Salt Lake Center
Mon 11:44:58 AM 38.1192 -113.9042 269° West 393 452 38,000  Level Salt Lake Center
Mon 11:46:00 AM 38.1172 -114.0406 269° West 390 449 38,000  Level Salt Lake Center
Mon 11:47:02 AM 38.1156 -114.2064 269° West 392 451 38,000  Level Salt Lake Center
Mon 11:48:04 AM 38.1122 -114.3450 268° West 393 452 38,000  Level Salt Lake Center
Mon 11:49:06 AM 38.1100 -114.4831 269° West 392 451 38,000  Level Salt Lake Center
Mon 11:50:08 AM 38.1069 -114.6211 268° West 392 451 38,000  Level Salt Lake Center
Mon 11:51:10 AM 38.1042 -114.7597 269° West 393 452 38,000  Level Salt Lake Center
Mon 11:52:12 AM 38.1006 -114.9272 268° West 396 456 38,000  Level Salt Lake Center
Mon 11:53:14 AM 38.0986 -115.0650 269° West 393 452 38,000  Level Salt Lake Center
Mon 11:54:16 AM 38.0939 -115.2053 268° West 395 455 38,000  Level Salt Lake Center
Mon 11:55:18 AM 38.0906 -115.3489 268° West 393 452 38,000  Level Salt Lake Center
Mon 11:56:20 AM 38.0878 -115.4886 269° West 395 455 38,000  Level Salt Lake Center
Mon 11:57:22 AM 38.0831 -115.6283 268° West 394 453 38,000  Level Salt Lake Center
Mon 11:58:24 AM 38.0789 -115.7678 268° West 396 456 38,000  Level Salt Lake Center
Mon 11:59:26 AM 38.0739 -115.9081 267° West 397 457 38,000  Level Salt Lake Center
Mon 12:00:28 PM 38.0694 -116.0764 268° West 397 457 38,000  Level Salt Lake Center
Mon 12:01:30 PM 38.0644 -116.2181 267° West 402 463 38,000  Level Salt Lake Center
Mon 12:02:32 PM 38.0603 -116.3597 268° West 402 463 38,000  Level Salt Lake Center
Mon 12:03:34 PM 38.0550 -116.5025 267° West 403 464 38,000  Level Salt Lake Center
Mon 12:04:36 PM 38.0497 -116.6447 267° West 403 464 38,000  Level Salt Lake Center
Mon 12:05:38 PM 38.0442 -116.7867 267° West 402 463 38,000  Level Salt Lake Center
Mon 12:06:40 PM 38.0386 -116.9517 268° West 407 468 38,000  Level Salt Lake Center
Mon 12:07:42 PM 38.0322 -117.1056 267° West 407 468 38,000  Level Salt Lake Center
Mon 12:08:54 PM 38.0258 -117.2539 267° West 410 472 38,000  Level Oakland Center
Mon 12:09:55 PM 38.0197 -117.4014 267° West 412 474 38,000  Level Oakland Center
Mon 12:10:57 PM 38.0136 -117.5464 267° West 410 472 38,000  Level Oakland Center
Mon 12:11:58 PM 38.0058 -117.7203 267° West 411 473 38,000  Level Oakland Center
Mon 12:12:59 PM 37.9953 -117.8653 265° West 412 474 38,000  Level Oakland Center
Mon 12:14:01 PM 37.9786 -118.0086 262° West 413 475 38,000  Level Oakland Center
Mon 12:15:02 PM 37.9636 -118.1544 263° West 416 479 38,000  Level Oakland Center
Mon 12:16:04 PM 37.9475 -118.2992 262° West 416 479 38,000  Level Oakland Center
Mon 12:17:05 PM 37.9308 -118.4433 262° West 415 478 38,000  Level Oakland Center
Mon 12:18:06 PM 37.9158 -118.5889 263° West 414 476 38,000  Level Oakland Center
Mon 12:19:08 PM 37.9017 -118.7356 263° West 419 482 38,000  Level Oakland Center
Mon 12:20:09 PM 37.8833 -118.8808 261° West 418 481 38,000  Level Oakland Center
Mon 12:21:10 PM 37.8650 -119.0417 262° West 419 482 38,000  Level Oakland Center
Mon 12:22:12 PM 37.8469 -119.1889 261° West 413 475 38,000  Level Oakland Center
Mon 12:23:13 PM 37.8308 -119.3269 262° West 409 471 38,000  Level Oakland Center
Mon 12:24:14 PM 37.8144 -119.4681 262° West 407 468 38,000 -585 Level Oakland Center
Mon 12:25:16 PM 37.7978 -119.6072 261° West 403 464 36,800 -1,317 Descending Oakland Center
Mon 12:26:17 PM 37.7817 -119.7500 262° West 408 470 35,300 -1,475 Descending Oakland Center
Mon 12:27:18 PM 37.7644 -119.8922 261° West 410 472 33,800 -1,610 Descending Oakland Center
Mon 12:28:20 PM 37.7433 -120.0636 261° West 410 472 32,000 -878 Descending Oakland Center
Mon 12:29:21 PM 37.7261 -120.2022 261° West 403 464 32,000 -443 Level Oakland Center
Mon 12:30:22 PM 37.7078 -120.3406 261° West 399 459 31,100 -1,328 Descending Oakland Center
Mon 12:31:23 PM 37.6892 -120.4869 261° West 417 480 29,300 -2,244 Descending Oakland Center
Mon 12:32:25 PM 37.6703 -120.6311 261° West 415 478 26,500 -2,537 Descending Oakland Center
Mon 12:33:26 PM 37.6517 -120.7717 261° West 409 471 24,100 -2,532 Descending Oakland Center
Mon 12:34:14 PM 37.6333 -120.8833 258° West 396 456 21,900 -2,278 Descending Northern Cal TRACON
Mon 12:35:14 PM 37.6167 -121.0167 261° West 385 443 20,000 -950 Descending Northern Cal TRACON
Mon 12:36:14 PM 37.6000 -121.1500 261° West 354 407 20,000 -1,158 Level Northern Cal TRACON
Mon 12:37:08 PM 37.6000 -121.2667 270° West 373 429 17,800 -2,600 Descending Northern Cal TRACON
Mon 12:38:14 PM 37.5833 -121.4000 261° West 354 407 14,800 -2,857 Descending Northern Cal TRACON
Mon 12:39:14 PM 37.5667 -121.5167 260° West 333 383 11,800 -1,900 Descending Northern Cal TRACON
Mon 12:40:14 PM 37.5500 -121.6167 258° West 303 349 11,000 -850 Descending Northern Cal TRACON
Mon 12:41:14 PM 37.5333 -121.7000 256° West 256 295 10,100 -1,158 Descending Northern Cal TRACON
Mon 12:42:08 PM 37.5167 -121.7833 256° West 256 295 8,800 -1,105 Descending Northern Cal TRACON
Mon 12:43:08 PM 37.5000 -121.8667 256° West 248 285 8,000 -700 Descending Northern Cal TRACON
Mon 12:44:08 PM 37.4833 -121.9500 256° West 250 288 7,400 -991 Descending Northern Cal TRACON
Mon 12:45:03 PM 37.5167 -122.0333 297° West 263 303 6,100 -1,096 Descending Northern Cal TRACON
Mon 12:46:03 PM 37.5333 -122.1000 288° West 228 262 5,300 -1,080 Descending Northern Cal TRACON
Mon 12:46:43 PM 37.5453 -122.1481 287° West 233 268 4,300 -1,248 Descending Oakland Center
Mon 12:47:44 PM 37.5686 -122.2175 293° West 225 259 3,200 -1,082 Descending Oakland Center

Login

Don't have an account? Register now (free) for customized features, flight alerts, and more!